Time;durP1;ratioP1;P1;durP2;ratioP2;P2;SDS_P1;SDS_P2;PMS_P1;PMS_P2;Temp;Humidity;BMP_temperature;BMP_pressure;BME280_temperature;BME280_humidity;BME280_pressure;Samples;Min_cycle;Max_cycle;Signal;HPM_P1;HPM_P2
2021/06/30 00:01:57;;;;;;;4.78;3.67;;;16.20;59.00;;;;;;5154868;27;20103;-68
2021/06/30 00:04:44;;;;;;;5.15;2.88;;;16.30;58.20;;;;;;5169207;27;19998;-68
2021/06/30 00:07:29;;;;;;;4.75;2.70;;;16.30;55.30;;;;;;5154964;27;20400;-68
2021/06/30 00:10:14;;;;;;;3.25;2.45;;;16.30;54.90;;;;;;5161780;27;20568;-69
2021/06/30 00:12:58;;;;;;;2.95;2.30;;;16.50;52.50;;;;;;5154087;27;20134;-67
2021/06/30 00:15:45;;;;;;;6.68;2.10;;;16.40;48.30;;;;;;5150331;27;20002;-67
2021/06/30 00:18:29;;;;;;;7.60;2.42;;;16.50;49.10;;;;;;5156138;27;20457;-67
2021/06/30 00:21:09;;;;;;;5.90;2.42;;;16.50;48.90;;;;;;5157682;27;20110;-67
2021/06/30 00:23:54;;;;;;;2.10;1.90;;;16.60;47.50;;;;;;5155224;27;20480;-67
2021/06/30 00:26:38;;;;;;;2.53;1.92;;;16.60;46.10;;;;;;5158796;27;20127;-68
2021/06/30 00:29:22;;;;;;;3.75;1.90;;;16.60;43.10;;;;;;5156325;27;20574;-67
2021/06/30 00:32:08;;;;;;;5.82;1.70;;;16.60;42.90;;;;;;5171279;27;20113;-68
2021/06/30 00:34:52;;;;;;;4.88;1.80;;;16.60;41.80;;;;;;5160154;27;20288;-67
2021/06/30 00:37:36;;;;;;;4.40;1.55;;;16.70;40.90;;;;;;5096615;27;20106;-67
2021/06/30 00:40:21;;;;;;;5.13;1.60;;;16.70;41.10;;;;;;5158024;27;20098;-68
2021/06/30 00:43:06;;;;;;;2.38;1.60;;;16.70;39.80;;;;;;5159681;27;20113;-67
2021/06/30 00:45:45;;;;;;;4.47;1.50;;;16.60;39.50;;;;;;5149985;27;20116;-68
2021/06/30 00:48:30;;;;;;;4.03;1.70;;;16.60;39.40;;;;;;5172712;27;20113;-68
2021/06/30 00:51:15;;;;;;;4.80;1.50;;;16.70;40.40;;;;;;5155035;27;20107;-67
2021/06/30 00:54:01;;;;;;;6.38;1.60;;;16.70;41.50;;;;;;5173177;27;20001;-67
2021/06/30 00:56:45;;;;;;;5.50;1.70;;;16.70;41.20;;;;;;5168734;27;20114;-68
2021/06/30 00:59:30;;;;;;;6.80;2.00;;;16.60;42.90;;;;;;5159755;27;20106;-67
2021/06/30 01:02:15;;;;;;;5.68;2.00;;;16.70;44.90;;;;;;5153002;27;20123;-67
2021/06/30 01:04:59;;;;;;;2.92;1.35;;;16.50;44.00;;;;;;5156598;27;20109;-68
2021/06/30 01:07:44;;;;;;;5.75;1.40;;;16.50;48.40;;;;;;5150839;27;20576;-67
2021/06/30 01:10:28;;;;;;;4.93;1.60;;;16.50;47.30;;;;;;5157788;27;20109;-68
2021/06/30 01:13:13;;;;;;;5.05;1.70;;;16.50;48.60;;;;;;5155909;27;20119;-68
2021/06/30 01:15:58;;;;;;;4.30;1.60;;;16.40;48.20;;;;;;5151280;27;20107;-68
2021/06/30 01:18:42;;;;;;;4.35;1.98;;;16.40;49.20;;;;;;5157653;27;20110;-68
2021/06/30 01:21:27;;;;;;;3.67;1.73;;;16.30;46.50;;;;;;5154768;27;20122;-68
2021/06/30 01:24:12;;;;;;;2.22;1.80;;;16.30;48.70;;;;;;5156489;27;20106;-68
2021/06/30 01:26:56;;;;;;;2.53;1.60;;;16.40;49.10;;;;;;5146527;27;20126;-68
2021/06/30 01:29:45;;;;;;;6.90;1.50;;;16.30;49.00;;;;;;5158258;27;20006;-68
2021/06/30 01:32:28;;;;;;;5.10;1.70;;;16.30;47.30;;;;;;5170256;27;20370;-66
2021/06/30 01:35:21;;;;;;;2.65;1.48;;;16.30;48.00;;;;;;5154705;27;20107;-67
2021/06/30 01:38:06;;;;;;;2.05;1.20;;;16.30;45.00;;;;;;5169751;27;20109;-68
2021/06/30 01:40:51;;;;;;;4.65;1.40;;;16.30;46.00;;;;;;5167195;27;20105;-68
2021/06/30 01:43:35;;;;;;;1.40;1.30;;;16.30;43.80;;;;;;5155642;27;20102;-67
2021/06/30 01:46:22;;;;;;;3.92;1.25;;;16.20;45.00;;;;;;5141552;27;20123;-68
2021/06/30 01:49:08;;;;;;;2.30;1.20;;;16.20;42.50;;;;;;5156652;27;20185;-68
2021/06/30 01:51:52;;;;;;;3.58;1.00;;;16.20;41.40;;;;;;5163646;27;20102;-68
2021/06/30 01:54:36;;;;;;;2.10;0.90;;;16.20;40.30;;;;;;5169539;27;20109;-68
2021/06/30 01:57:21;;;;;;;1.52;0.82;;;16.30;37.50;;;;;;5153292;27;20130;-68
2021/06/30 02:00:09;;;;;;;1.30;0.95;;;16.20;36.00;;;;;;5171987;27;19994;-68
2021/06/30 02:02:55;;;;;;;4.22;0.98;;;16.20;37.00;;;;;;5159231;27;20185;-68
2021/06/30 02:05:43;;;;;;;2.97;1.15;;;16.30;38.90;;;;;;5158235;27;20113;-67
2021/06/30 02:08:27;;;;;;;3.00;1.10;;;16.20;38.10;;;;;;5156885;27;20107;-68
2021/06/30 02:11:12;;;;;;;3.03;0.90;;;16.20;40.40;;;;;;5153875;27;20461;-68
2021/06/30 02:13:57;;;;;;;1.75;0.85;;;16.20;41.50;;;;;;5159433;27;20119;-67
2021/06/30 02:16:41;;;;;;;1.15;0.80;;;16.20;41.90;;;;;;5156948;27;20561;-67
2021/06/30 02:19:26;;;;;;;1.30;1.10;;;16.10;41.10;;;;;;5156711;27;20106;-69
2021/06/30 02:22:11;;;;;;;4.10;0.90;;;16.00;42.90;;;;;;5168874;27;20118;-68
2021/06/30 02:24:58;;;;;;;3.05;0.93;;;16.00;48.20;;;;;;5159055;27;20677;-68
2021/06/30 02:27:37;;;;;;;3.85;0.98;;;15.90;46.30;;;;;;5171636;27;20103;-68
2021/06/30 02:30:25;;;;;;;1.00;0.77;;;16.00;48.70;;;;;;5151878;27;20006;-68
2021/06/30 02:33:11;;;;;;;1.45;0.90;;;15.80;45.00;;;;;;5155625;27;20110;-69
2021/06/30 02:35:56;;;;;;;5.50;0.90;;;15.70;48.40;;;;;;5151069;27;20124;-68
2021/06/30 02:38:40;;;;;;;2.88;0.80;;;15.70;47.90;;;;;;5167203;27;20118;-68
2021/06/30 02:41:24;;;;;;;1.40;0.85;;;15.70;46.70;;;;;;5153342;27;20106;-67
2021/06/30 02:44:09;;;;;;;1.10;0.90;;;15.70;50.30;;;;;;5157902;27;20466;-68
2021/06/30 02:46:54;;;;;;;2.20;0.95;;;15.60;48.70;;;;;;5148705;27;20115;-68
2021/06/30 02:49:33;;;;;;;1.80;1.00;;;15.60;45.90;;;;;;5158393;27;20482;-68
2021/06/30 02:52:14;;;;;;;2.65;0.77;;;15.50;50.20;;;;;;5159788;27;20102;-68
2021/06/30 02:55:00;;;;;;;5.97;1.17;;;15.40;50.50;;;;;;5152967;27;19999;-68
2021/06/30 02:57:44;;;;;;;1.42;0.70;;;15.50;51.20;;;;;;5158589;27;20113;-69
2021/06/30 03:00:28;;;;;;;2.88;0.80;;;15.30;47.20;;;;;;5156063;27;20106;-68
2021/06/30 03:03:15;;;;;;;1.92;0.93;;;15.40;48.10;;;;;;5169231;27;20002;-68
2021/06/30 03:05:59;;;;;;;1.58;0.73;;;15.40;47.20;;;;;;5148731;27;20110;-68
2021/06/30 03:08:44;;;;;;;1.63;0.60;;;15.50;47.10;;;;;;5153039;27;20111;-68
2021/06/30 03:11:29;;;;;;;2.35;0.80;;;15.50;44.10;;;;;;5155487;27;20774;-68
2021/06/30 03:14:13;;;;;;;2.53;0.50;;;15.40;41.80;;;;;;5156905;27;20107;-68
2021/06/30 03:16:53;;;;;;;2.65;0.60;;;15.40;41.60;;;;;;5156344;27;20470;-68
2021/06/30 03:19:38;;;;;;;3.70;0.73;;;15.40;37.70;;;;;;5155284;27;20106;-68
2021/06/30 03:22:22;;;;;;;2.78;0.60;;;15.40;39.80;;;;;;5169344;27;20559;-67
2021/06/30 03:25:09;;;;;;;3.15;0.60;;;15.50;34.40;;;;;;5155493;27;20122;-68
2021/06/30 03:27:53;;;;;;;1.70;0.50;;;15.40;36.60;;;;;;5155146;27;20533;-68
2021/06/30 03:30:38;;;;;;;1.40;0.40;;;15.50;37.40;;;;;;5159567;27;20652;-68
2021/06/30 03:33:22;;;;;;;2.15;0.57;;;15.60;34.50;;;;;;5175311;27;20129;-69
2021/06/30 03:36:07;;;;;;;2.22;0.40;;;15.30;39.50;;;;;;5151991;27;20106;-68
2021/06/30 03:38:52;;;;;;;1.17;0.60;;;15.20;40.60;;;;;;5156051;27;20102;-68
2021/06/30 03:41:36;;;;;;;1.85;0.50;;;15.20;36.90;;;;;;5156179;27;20122;-68
2021/06/30 03:44:21;;;;;;;4.13;0.50;;;15.30;33.60;;;;;;5174555;27;20118;-68
2021/06/30 03:47:07;;;;;;;2.50;0.50;;;15.30;33.80;;;;;;5155465;27;19994;-68
2021/06/30 03:49:51;;;;;;;0.35;0.20;;;15.20;32.30;;;;;;5157913;27;20122;-68
2021/06/30 03:52:36;;;;;;;0.68;0.30;;;15.10;34.30;;;;;;5153045;27;20118;-68
2021/06/30 03:55:23;;;;;;;0.73;0.52;;;15.10;32.90;;;;;;5171177;27;19993;-68
2021/06/30 03:58:07;;;;;;;1.38;0.80;;;15.20;33.50;;;;;;5168436;27;20122;-67
2021/06/30 04:00:51;;;;;;;0.70;0.40;;;15.20;33.90;;;;;;5159846;27;20165;-68
2021/06/30 04:03:36;;;;;;;1.83;0.40;;;15.20;31.30;;;;;;5159400;27;20118;-67
2021/06/30 04:06:21;;;;;;;0.90;0.40;;;15.20;30.70;;;;;;5159974;27;20481;-69
2021/06/30 04:09:05;;;;;;;1.25;0.30;;;15.20;31.70;;;;;;5173083;27;20483;-68
2021/06/30 04:11:50;;;;;;;0.57;0.40;;;15.00;33.20;;;;;;5166238;27;20559;-67
2021/06/30 04:14:35;;;;;;;1.92;0.40;;;15.00;34.90;;;;;;5156579;27;20115;-67
2021/06/30 04:17:19;;;;;;;1.67;0.40;;;15.00;33.70;;;;;;5172747;27;20106;-67
2021/06/30 04:20:05;;;;;;;0.75;0.40;;;15.00;34.10;;;;;;5160651;27;20110;-69
2021/06/30 04:22:48;;;;;;;0.35;0.25;;;15.00;35.00;;;;;;5159859;27;20102;-68
2021/06/30 04:25:33;;;;;;;0.90;0.43;;;15.10;35.00;;;;;;5159308;27;20118;-68
2021/06/30 04:28:17;;;;;;;0.88;0.30;;;15.00;36.50;;;;;;5174628;27;20121;-68
2021/06/30 04:31:02;;;;;;;5.63;1.15;;;15.00;34.80;;;;;;5160502;27;20461;-68
2021/06/30 04:33:47;;;;;;;2.15;0.57;;;15.00;38.60;;;;;;5156312;27;20107;-68
2021/06/30 04:36:31;;;;;;;7.47;0.52;;;15.00;38.00;;;;;;5140485;27;20603;-68
2021/06/30 04:39:16;;;;;;;1.05;0.55;;;14.90;36.50;;;;;;5156975;27;20117;-68
2021/06/30 04:42:00;;;;;;;1.73;0.40;;;15.00;36.10;;;;;;5171860;27;20110;-68
2021/06/30 04:44:45;;;;;;;0.90;0.57;;;15.10;35.90;;;;;;5157509;27;20118;-67
2021/06/30 04:47:30;;;;;;;0.60;0.45;;;15.10;37.30;;;;;;5158234;27;20110;-67
2021/06/30 04:50:18;;;;;;;4.28;0.70;;;15.10;37.20;;;;;;5154143;27;20006;-68
2021/06/30 04:53:02;;;;;;;2.60;0.85;;;15.10;38.60;;;;;;5157232;27;20392;-68
2021/06/30 04:55:42;;;;;;;1.85;0.63;;;15.20;38.60;;;;;;5154278;27;20119;-67
2021/06/30 04:58:29;;;;;;;1.98;0.70;;;15.20;39.00;;;;;;5155733;27;20006;-68
2021/06/30 05:01:13;;;;;;;3.05;0.60;;;15.20;38.70;;;;;;5156376;27;20557;-66
2021/06/30 05:03:57;;;;;;;0.70;0.60;;;15.30;35.60;;;;;;5158499;27;20111;-68
2021/06/30 05:06:44;;;;;;;0.50;0.30;;;15.40;33.90;;;;;;5143726;27;20002;-69
2021/06/30 05:09:24;;;;;;;1.20;0.47;;;15.40;32.20;;;;;;5172825;27;20176;-68
2021/06/30 05:12:08;;;;;;;0.85;0.50;;;15.40;31.30;;;;;;5167931;27;20122;-68
2021/06/30 05:14:53;;;;;;;1.90;0.40;;;15.40;31.00;;;;;;5156292;27;20469;-67
2021/06/30 05:17:37;;;;;;;1.55;0.50;;;15.60;28.00;;;;;;5163461;27;20110;-67
2021/06/30 05:20:22;;;;;;;2.30;0.50;;;15.60;29.50;;;;;;5155872;27;20604;-67
2021/06/30 05:23:06;;;;;;;1.67;0.45;;;15.80;28.40;;;;;;5157156;27;20099;-68
2021/06/30 05:25:53;;;;;;;0.50;0.40;;;15.90;26.60;;;;;;5136203;27;19990;-67
2021/06/30 05:28:39;;;;;;;2.70;0.60;;;15.90;26.80;;;;;;5157980;27;20436;-68
2021/06/30 05:31:23;;;;;;;3.17;0.60;;;16.20;26.20;;;;;;5097409;27;20572;-69
2021/06/30 05:34:10;;;;;;;2.75;0.40;;;16.30;24.00;;;;;;5171460;27;20271;-67
2021/06/30 05:36:54;;;;;;;2.78;0.50;;;16.20;21.20;;;;;;5144708;27;20119;-67
2021/06/30 05:39:39;;;;;;;1.52;0.43;;;16.30;24.00;;;;;;5169774;27;20563;-68
2021/06/30 05:42:23;;;;;;;0.95;0.45;;;16.80;14.50;;;;;;5160267;27;20110;-68
2021/06/30 05:45:16;;;;;;;3.17;0.70;;;19.60;1.00;;;;;;5168573;27;19989;-68
2021/06/30 05:48:01;;;;;;;0.85;0.52;;;19.10;1.00;;;;;;5154017;27;20118;-68
2021/06/30 05:50:45;;;;;;;4.43;0.40;;;17.90;7.50;;;;;;5156218;27;20114;-68
2021/06/30 05:53:32;;;;;;;1.20;0.30;;;17.30;9.20;;;;;;5156265;27;20869;-67
2021/06/30 05:56:13;;;;;;;1.52;0.43;;;17.30;7.70;;;;;;5160838;27;20110;-67
2021/06/30 05:58:57;;;;;;;0.77;0.30;;;17.20;8.90;;;;;;5152932;27;20355;-68
2021/06/30 06:01:42;;;;;;;0.65;0.35;;;17.10;10.60;;;;;;5148537;27;20631;-68
2021/06/30 06:04:29;;;;;;;0.93;0.40;;;17.20;9.80;;;;;;5175634;27;20464;-68
2021/06/30 06:07:13;;;;;;;3.35;0.60;;;17.00;8.90;;;;;;5167484;27;20109;-67
2021/06/30 06:09:58;;;;;;;1.17;0.28;;;17.10;10.30;;;;;;5156647;27;20477;-67
2021/06/30 06:12:42;;;;;;;0.77;0.40;;;17.10;8.40;;;;;;5152044;27;20111;-67
2021/06/30 06:15:27;;;;;;;1.60;0.40;;;16.90;9.90;;;;;;5151729;27;20592;-68
2021/06/30 06:18:11;;;;;;;2.88;0.50;;;17.50;8.40;;;;;;5171216;27;20109;-68
2021/06/30 06:20:56;;;;;;;1.48;0.38;;;17.30;6.30;;;;;;5155279;27;20119;-67
2021/06/30 06:23:41;;;;;;;0.95;0.40;;;17.30;7.90;;;;;;5153137;27;20118;-67
2021/06/30 06:26:25;;;;;;;0.77;0.32;;;17.30;5.10;;;;;;5166740;27;20118;-68
2021/06/30 06:29:10;;;;;;;1.15;0.57;;;17.30;6.40;;;;;;5158040;27;20113;-67
2021/06/30 06:31:55;;;;;;;1.92;0.63;;;17.20;7.70;;;;;;5162999;27;20110;-68
2021/06/30 06:34:39;;;;;;;0.95;0.50;;;17.70;5.80;;;;;;5159670;27;20421;-67
2021/06/30 06:37:24;;;;;;;1.08;0.43;;;17.50;4.30;;;;;;5173889;27;20114;-68
2021/06/30 06:40:10;;;;;;;0.82;0.40;;;17.70;4.00;;;;;;5159372;27;20775;-68
2021/06/30 06:42:54;;;;;;;1.13;0.40;;;17.70;6.20;;;;;;5160465;27;20698;-68
2021/06/30 06:45:39;;;;;;;1.45;0.80;;;17.80;3.90;;;;;;5149786;27;20112;-66
2021/06/30 06:48:24;;;;;;;0.70;0.50;;;18.30;4.40;;;;;;5151661;27;20573;-67
2021/06/30 06:51:10;;;;;;;1.45;0.50;;;18.20;3.60;;;;;;5169701;27;20413;-68
2021/06/30 06:53:54;;;;;;;1.25;0.50;;;17.90;1.90;;;;;;5156227;27;20126;-67
2021/06/30 06:56:41;;;;;;;2.17;0.65;;;18.10;1.00;;;;;;5157659;27;20012;-68
2021/06/30 06:59:25;;;;;;;2.55;0.70;;;18.70;1.00;;;;;;5167890;27;20632;-68
2021/06/30 07:02:12;;;;;;;3.30;0.70;;;18.60;1.00;;;;;;5151119;27;20433;-67
2021/06/30 07:04:56;;;;;;;0.80;0.70;;;18.80;1.00;;;;;;5153275;27;20111;-66
2021/06/30 07:07:41;;;;;;;4.05;1.33;;;18.90;1.00;;;;;;5155540;27;20521;-68
2021/06/30 07:10:25;;;;;;;1.75;0.40;;;18.50;1.00;;;;;;5170942;27;20113;-66
2021/06/30 07:13:10;;;;;;;2.25;0.40;;;18.10;1.00;;;;;;5172925;27;20109;-68
2021/06/30 07:15:50;;;;;;;0.55;0.32;;;17.90;1.00;;;;;;5144998;27;20123;-67
2021/06/30 07:18:35;;;;;;;1.33;0.50;;;18.00;1.00;;;;;;5153952;27;20114;-67
2021/06/30 07:21:19;;;;;;;1.27;0.38;;;17.70;1.00;;;;;;5171432;27;20110;-67
2021/06/30 07:24:05;;;;;;;0.35;0.30;;;17.90;1.00;;;;;;5161938;27;20113;-68
2021/06/30 07:26:50;;;;;;;2.63;0.70;;;17.80;1.00;;;;;;5135973;27;20393;-67
2021/06/30 07:29:34;;;;;;;1.48;0.50;;;17.60;1.60;;;;;;5154357;27;20117;-68
2021/06/30 07:32:21;;;;;;;0.98;0.40;;;17.30;2.40;;;;;;5168862;27;20002;-68
2021/06/30 07:35:06;;;;;;;1.88;0.50;;;17.70;1.70;;;;;;5154169;27;20119;-68
2021/06/30 07:37:52;;;;;;;1.83;0.40;;;17.60;1.00;;;;;;5155351;27;20010;-67
2021/06/30 07:40:36;;;;;;;2.38;0.40;;;18.20;1.10;;;;;;5157296;27;20113;-67
2021/06/30 07:43:20;;;;;;;1.50;0.50;;;18.70;1.00;;;;;;5156478;27;20110;-68
2021/06/30 07:46:00;;;;;;;2.83;0.45;;;19.10;1.00;;;;;;5143755;27;20122;-67
2021/06/30 07:48:43;;;;;;;0.47;0.35;;;18.70;1.00;;;;;;5171649;27;20118;-68
2021/06/30 07:51:24;;;;;;;4.53;2.75;;;18.40;1.00;;;;;;5159130;27;20109;-68
2021/06/30 07:54:03;;;;;;;0.80;0.32;;;18.40;1.00;;;;;;5153158;27;20106;-68
2021/06/30 07:56:43;;;;;;;1.85;0.40;;;17.90;1.00;;;;;;5150746;27;20107;-68
2021/06/30 07:59:22;;;;;;;1.50;0.40;;;18.40;1.00;;;;;;5169424;27;20126;-68
2021/06/30 08:02:05;;;;;;;2.42;0.40;;;18.50;1.00;;;;;;5166831;27;20101;-67
2021/06/30 08:04:44;;;;;;;0.40;0.20;;;18.70;1.00;;;;;;5149445;27;20106;-67
2021/06/30 08:07:23;;;;;;;1.45;0.30;;;17.90;1.00;;;;;;5170479;27;20114;-68
2021/06/30 08:10:09;;;;;;;1.30;0.40;;;19.00;1.00;;;;;;5156455;27;20107;-68
2021/06/30 08:12:48;;;;;;;1.48;0.30;;;19.00;1.00;;;;;;5172678;27;20113;-67
2021/06/30 08:15:28;;;;;;;0.47;0.40;;;18.70;1.00;;;;;;5162279;27;20506;-67
2021/06/30 08:18:08;;;;;;;1.48;0.50;;;19.10;1.00;;;;;;5169633;27;20576;-68
2021/06/30 08:20:51;;;;;;;0.95;0.40;;;19.00;1.00;;;;;;5159126;27;20122;-67
2021/06/30 08:23:30;;;;;;;2.60;0.43;;;18.20;1.00;;;;;;5157012;27;20183;-67
2021/06/30 08:26:12;;;;;;;0.50;0.40;;;17.90;7.90;;;;;;5171928;27;20193;-67
2021/06/30 08:28:51;;;;;;;1.38;0.30;;;17.70;8.50;;;;;;5155106;27;20476;-68
2021/06/30 08:31:31;;;;;;;5.25;0.55;;;17.20;10.60;;;;;;5133053;27;20111;-67
2021/06/30 08:34:13;;;;;;;1.30;0.70;;;17.00;16.20;;;;;;5175035;27;20162;-70
2021/06/30 08:36:56;;;;;;;0.60;0.40;;;17.00;12.60;;;;;;5158039;27;20119;-68
2021/06/30 08:39:36;;;;;;;1.35;0.65;;;16.70;13.90;;;;;;5146970;27;20138;-67
2021/06/30 08:42:18;;;;;;;1.70;0.70;;;17.00;20.20;;;;;;5154263;27;20182;-69
2021/06/30 08:44:57;;;;;;;3.97;0.82;;;16.80;20.60;;;;;;5162853;27;20469;-67
2021/06/30 08:47:39;;;;;;;4.72;0.95;;;16.60;21.80;;;;;;5158615;27;20114;-67
2021/06/30 08:50:18;;;;;;;2.90;0.70;;;16.80;29.50;;;;;;5169818;27;20102;-68
2021/06/30 08:52:59;;;;;;;3.47;0.80;;;16.80;34.40;;;;;;5154705;27;20111;-67
2021/06/30 08:55:47;;;;;;;0.75;0.50;;;16.60;34.10;;;;;;5154048;27;20486;-68
2021/06/30 08:58:25;;;;;;;1.00;0.43;;;16.50;33.90;;;;;;5167452;27;20106;-68
2021/06/30 09:01:05;;;;;;;2.22;0.60;;;16.20;34.00;;;;;;5157203;27;20109;-68
2021/06/30 09:03:50;;;;;;;2.17;0.70;;;16.30;36.30;;;;;;5092797;27;20117;-69
2021/06/30 09:06:31;;;;;;;0.95;0.68;;;16.40;34.10;;;;;;5148096;27;20107;-69
2021/06/30 09:09:13;;;;;;;0.90;0.50;;;16.10;36.60;;;;;;5163711;27;20121;-68
2021/06/30 09:11:58;;;;;;;1.20;0.50;;;16.50;39.70;;;;;;5155072;27;20106;-70
2021/06/30 09:14:40;;;;;;;0.47;0.30;;;16.70;35.70;;;;;;5175148;27;20109;-69
2021/06/30 09:17:28;;;;;;;0.73;0.40;;;16.20;35.50;;;;;;5153513;27;20119;-69
2021/06/30 09:20:09;;;;;;;1.15;0.50;;;15.60;31.40;;;;;;5167456;27;20667;-69
2021/06/30 09:22:57;;;;;;;0.93;0.77;;;15.80;41.30;;;;;;5115790;27;20388;-70
2021/06/30 09:25:42;;;;;;;2.28;0.57;;;15.90;41.80;;;;;;5163657;27;20126;-69
2021/06/30 09:28:25;;;;;;;1.67;0.57;;;16.30;37.80;;;;;;5158209;27;20844;-69
2021/06/30 09:31:09;;;;;;;1.67;0.60;;;16.50;30.00;;;;;;5151629;27;20115;-70
2021/06/30 09:33:51;;;;;;;2.05;0.75;;;16.50;28.90;;;;;;5154959;27;20122;-70
2021/06/30 09:36:33;;;;;;;2.75;0.73;;;16.60;33.00;;;;;;5159567;27;20110;-70
2021/06/30 09:39:14;;;;;;;2.05;0.88;;;16.60;37.60;;;;;;5153413;27;20110;-69
2021/06/30 09:42:03;;;;;;;1.75;0.50;;;17.10;36.20;;;;;;5153951;27;20122;-70
2021/06/30 09:44:45;;;;;;;2.80;0.70;;;17.20;29.30;;;;;;5158849;27;20173;-70
2021/06/30 09:47:24;;;;;;;1.77;0.52;;;17.70;28.50;;;;;;5173923;27;20110;-69
2021/06/30 09:50:07;;;;;;;1.00;0.70;;;17.40;16.50;;;;;;5153535;27;20182;-69
2021/06/30 09:52:49;;;;;;;3.13;0.70;;;17.60;20.10;;;;;;5152774;27;20102;-70
2021/06/30 09:55:30;;;;;;;0.30;0.30;;;17.20;21.60;;;;;;5172122;27;20485;-70
2021/06/30 09:58:10;;;;;;;1.17;0.68;;;17.40;25.40;;;;;;5159987;27;20114;-70
2021/06/30 10:01:15;;;;;;;0.88;0.70;;;17.30;27.50;;;;;;5169778;27;20109;-70
2021/06/30 10:03:54;;;;;;;3.13;0.73;;;17.20;23.90;;;;;;5120366;27;20114;-69
2021/06/30 10:06:36;;;;;;;0.88;0.50;;;17.10;27.50;;;;;;5159040;27;20115;-69
2021/06/30 10:09:23;;;;;;;2.40;0.52;;;17.20;27.00;;;;;;5171663;27;20114;-71
2021/06/30 10:12:07;;;;;;;1.02;0.55;;;17.30;23.60;;;;;;5153610;27;20123;-70
2021/06/30 10:14:47;;;;;;;1.88;0.45;;;17.40;22.30;;;;;;5161315;27;20444;-69
2021/06/30 10:17:26;;;;;;;2.90;0.95;;;17.30;23.60;;;;;;5109466;27;20116;-68
2021/06/30 10:20:07;;;;;;;2.38;0.85;;;17.00;24.30;;;;;;5151608;27;20107;-69
2021/06/30 10:22:47;;;;;;;0.98;0.60;;;17.40;32.20;;;;;;5157890;27;20114;-68
2021/06/30 10:25:27;;;;;;;1.77;0.50;;;17.40;30.60;;;;;;5165126;27;20686;-69
2021/06/30 10:28:07;;;;;;;1.27;0.70;;;17.20;15.90;;;;;;5153854;27;20110;-69
2021/06/30 10:30:46;;;;;;;1.48;0.50;;;17.60;21.00;;;;;;5151843;27;20114;-68
2021/06/30 10:33:37;;;;;;;0.85;0.40;;;17.70;13.80;;;;;;5154605;27;20221;-69
2021/06/30 10:36:17;;;;;;;2.45;0.80;;;18.20;13.40;;;;;;5149483;27;20118;-69
2021/06/30 10:38:57;;;;;;;0.73;0.40;;;18.90;18.50;;;;;;5170670;27;20118;-69
2021/06/30 10:41:43;;;;;;;1.67;0.40;;;19.40;9.80;;;;;;5152807;27;20433;-68
2021/06/30 10:44:25;;;;;;;0.88;0.80;;;18.70;6.30;;;;;;5154883;27;20115;-69
2021/06/30 10:47:30;;;;;;;0.60;0.40;;;18.50;8.40;;;;;;5154959;27;20193;-68
2021/06/30 10:50:33;;;;;;;0.70;0.50;;;18.40;5.50;;;;;;5152131;27;20110;-69
2021/06/30 10:53:36;;;;;;;1.00;0.60;;;18.60;6.70;;;;;;5157112;27;20119;-69
2021/06/30 10:56:15;;;;;;;0.82;0.40;;;18.10;5.40;;;;;;5150200;27;20613;-68
2021/06/30 10:59:03;;;;;;;0.68;0.50;;;17.70;4.10;;;;;;5156730;27;20122;-69
2021/06/30 11:02:12;;;;;;;0.60;0.47;;;18.10;4.80;;;;;;5167824;27;20110;-67
2021/06/30 11:04:52;;;;;;;1.05;0.50;;;18.40;5.30;;;;;;5173954;27;20666;-68
2021/06/30 11:07:36;;;;;;;1.38;0.50;;;18.50;3.80;;;;;;5172599;27;20118;-69
2021/06/30 11:10:53;;;;;;;0.77;0.55;;;18.50;1.10;;;;;;5176506;27;19914;-69
2021/06/30 11:13:54;;;;;;;1.70;0.60;;;18.60;1.70;;;;;;5169573;27;20880;-68
2021/06/30 11:16:55;;;;;;;0.70;0.50;;;18.80;1.00;;;;;;5143499;27;20114;-69
2021/06/30 11:19:45;;;;;;;0.60;0.40;;;19.00;1.00;;;;;;5150951;27;20118;-68
2021/06/30 11:22:35;;;;;;;1.17;0.50;;;18.40;1.00;;;;;;5155500;27;20111;-68
2021/06/30 11:25:25;;;;;;;2.80;0.80;;;18.80;1.00;;;;;;5155419;27;20106;-69
2021/06/30 11:28:30;;;;;;;0.88;0.40;;;19.30;1.00;;;;;;5161616;27;20110;-69
2021/06/30 11:31:41;;;;;;;1.20;0.70;;;19.40;1.00;;;;;;5161372;27;20114;-68
2021/06/30 11:34:23;;;;;;;1.55;0.55;;;19.80;1.00;;;;;;5174815;27;20117;-67
2021/06/30 11:37:02;;;;;;;0.80;0.70;;;19.60;1.00;;;;;;5154080;27;20580;-67
2021/06/30 11:39:46;;;;;;;2.28;0.80;;;19.20;1.00;;;;;;5148690;27;20532;-69
2021/06/30 11:42:32;;;;;;;1.65;0.70;;;18.90;1.00;;;;;;5156595;27;20374;-68
2021/06/30 11:45:20;;;;;;;0.60;0.57;;;19.20;1.00;;;;;;5159435;27;20123;-68
2021/06/30 11:48:01;;;;;;;4.22;0.52;;;18.70;1.00;;;;;;5173630;27;20696;-69
2021/06/30 11:50:52;;;;;;;2.05;0.40;;;19.00;1.00;;;;;;5156641;27;20119;-69
2021/06/30 11:53:36;;;;;;;0.50;0.30;;;18.70;1.00;;;;;;5154388;27;20111;-68
2021/06/30 11:56:35;;;;;;;0.47;0.28;;;18.70;1.00;;;;;;5160997;27;20114;-68
2021/06/30 11:59:19;;;;;;;1.45;0.40;;;18.80;1.00;;;;;;5160571;27;20294;-68
2021/06/30 12:01:58;;;;;;;3.42;1.33;;;18.80;1.00;;;;;;5153791;27;20114;-68
2021/06/30 12:04:38;;;;;;;0.90;0.47;;;18.60;1.00;;;;;;5174268;27;20109;-68
2021/06/30 12:07:20;;;;;;;1.98;0.38;;;19.00;1.00;;;;;;5156897;27;20103;-67
2021/06/30 12:10:04;;;;;;;1.88;0.43;;;19.30;1.00;;;;;;5156152;27;20181;-66
2021/06/30 12:12:44;;;;;;;4.55;0.52;;;19.50;1.00;;;;;;5153674;27;20103;-68
2021/06/30 12:15:24;;;;;;;0.40;0.40;;;19.60;1.00;;;;;;5152143;27;20572;-68
2021/06/30 12:18:04;;;;;;;1.83;0.50;;;19.70;1.00;;;;;;5156300;27;20113;-67
2021/06/30 12:20:44;;;;;;;0.82;0.40;;;20.20;1.00;;;;;;5155224;27;20477;-68
2021/06/30 12:23:23;;;;;;;1.50;0.40;;;20.30;1.00;;;;;;5162594;27;20169;-68
2021/06/30 12:26:07;;;;;;;1.15;0.40;;;19.20;1.00;;;;;;5149440;27;20116;-67
2021/06/30 12:28:47;;;;;;;0.50;0.40;;;19.00;1.00;;;;;;5157548;27;20118;-68
2021/06/30 12:31:27;;;;;;;1.23;0.50;;;19.50;1.00;;;;;;5152854;27;20107;-67
2021/06/30 12:34:07;;;;;;;1.50;0.47;;;19.40;1.00;;;;;;5158051;27;20126;-68
2021/06/30 12:36:47;;;;;;;1.70;0.50;;;19.40;1.00;;;;;;5135097;27;20118;-67
2021/06/30 12:39:29;;;;;;;1.02;0.40;;;18.60;1.00;;;;;;5170193;27;20525;-67
2021/06/30 12:42:10;;;;;;;0.30;0.30;;;18.50;1.00;;;;;;5153394;27;20201;-68
2021/06/30 12:44:58;;;;;;;1.83;0.60;;;18.10;1.00;;;;;;5156234;27;20110;-68
2021/06/30 12:47:37;;;;;;;1.10;0.77;;;18.20;5.40;;;;;;5156634;27;20469;-67
2021/06/30 12:50:17;;;;;;;0.85;0.70;;;18.40;10.70;;;;;;5161078;27;20122;-67
2021/06/30 12:53:01;;;;;;;0.60;0.60;;;18.40;8.30;;;;;;5170988;27;20106;-68
2021/06/30 12:55:52;;;;;;;0.98;0.77;;;18.00;9.50;;;;;;5144807;27;20123;-67
2021/06/30 12:58:41;;;;;;;0.90;0.70;;;18.70;7.90;;;;;;5166761;27;20115;-67
2021/06/30 13:01:27;;;;;;;0.50;0.50;;;19.00;4.10;;;;;;5172735;27;20110;-68
2021/06/30 13:04:08;;;;;;;1.23;0.60;;;19.00;1.00;;;;;;5172426;27;20356;-68
2021/06/30 13:06:51;;;;;;;0.82;0.50;;;18.90;1.00;;;;;;5136187;27;20127;-67
2021/06/30 13:09:34;;;;;;;2.08;0.40;;;18.60;1.00;;;;;;5154708;27;20107;-68
2021/06/30 13:12:21;;;;;;;1.08;0.50;;;18.80;1.00;;;;;;5158811;27;20114;-68
2021/06/30 13:15:00;;;;;;;1.40;0.50;;;19.20;1.00;;;;;;5169419;27;20353;-68
2021/06/30 13:17:40;;;;;;;1.58;0.50;;;18.70;1.00;;;;;;5167343;27;20568;-68
2021/06/30 13:20:22;;;;;;;1.42;0.70;;;18.70;1.00;;;;;;5134680;27;20934;-67
2021/06/30 13:23:01;;;;;;;1.20;0.43;;;19.00;1.00;;;;;;5092860;27;20112;-68
2021/06/30 13:25:48;;;;;;;1.92;0.70;;;18.80;1.00;;;;;;5151024;27;20119;-68
2021/06/30 13:28:53;;;;;;;0.80;0.50;;;18.90;1.00;;;;;;5149695;27;20596;-68
2021/06/30 13:34:35;;;;;;;1.75;1.02;;;19.20;1.00;;;;;;5156024;27;20529;-67
2021/06/30 13:37:16;;;;;;;1.40;0.45;;;18.90;1.00;;;;;;5142481;27;20131;-67
2021/06/30 13:39:56;;;;;;;1.52;0.60;;;18.80;1.00;;;;;;5150480;27;20476;-68
2021/06/30 13:42:36;;;;;;;3.35;0.63;;;17.80;3.60;;;;;;5146751;27;20114;-66
2021/06/30 13:45:18;;;;;;;4.72;1.05;;;17.90;7.70;;;;;;5143814;27;20124;-68
2021/06/30 13:47:57;;;;;;;1.83;0.60;;;17.90;13.20;;;;;;5135607;27;20123;-67
2021/06/30 13:50:38;;;;;;;2.00;0.70;;;17.60;9.50;;;;;;5139571;27;20585;-67
2021/06/30 13:53:23;;;;;;;1.20;0.88;;;17.20;12.70;;;;;;5150311;27;20119;-68
2021/06/30 13:56:07;;;;;;;1.52;0.95;;;17.40;14.50;;;;;;5157381;27;20339;-68
2021/06/30 13:58:48;;;;;;;1.55;1.00;;;17.70;16.10;;;;;;5147600;27;20477;-68
2021/06/30 14:01:27;;;;;;;0.80;0.80;;;17.60;13.00;;;;;;5158806;27;20118;-67
2021/06/30 14:04:07;;;;;;;0.75;0.60;;;17.90;15.20;;;;;;5163491;27;20113;-66
2021/06/30 14:06:47;;;;;;;0.60;0.57;;;17.80;14.80;;;;;;5132072;27;20115;-68
2021/06/30 14:09:27;;;;;;;0.95;0.55;;;17.30;17.70;;;;;;5149978;27;20119;-69
2021/06/30 14:12:08;;;;;;;1.52;1.00;;;17.40;16.10;;;;;;5163418;27;20572;-69
2021/06/30 14:14:48;;;;;;;4.18;0.77;;;17.70;16.70;;;;;;5147040;27;20549;-69
2021/06/30 14:17:27;;;;;;;1.58;0.63;;;17.80;16.00;;;;;;5151062;27;20114;-68
2021/06/30 14:20:10;;;;;;;2.03;0.80;;;18.30;8.80;;;;;;5165698;27;20372;-67
2021/06/30 14:22:50;;;;;;;2.38;0.60;;;18.70;13.10;;;;;;5165183;27;20460;-67